sensor_id;sensor_type;location;lat;lon;timestamp;temperature;humidity
42663;DHT22;44330;51.360;6.686;2023-06-14T00:00:58;19.80;1.00
42663;DHT22;44330;51.360;6.686;2023-06-14T00:03:23;19.80;1.00
42663;DHT22;44330;51.360;6.686;2023-06-14T00:05:50;19.80;1.00
42663;DHT22;44330;51.360;6.686;2023-06-14T00:08:15;19.70;1.00
42663;DHT22;44330;51.360;6.686;2023-06-14T00:10:41;19.80;1.00
42663;DHT22;44330;51.360;6.686;2023-06-14T00:13:08;19.70;1.00
42663;DHT22;44330;51.360;6.686;2023-06-14T00:15:34;19.60;1.00
42663;DHT22;44330;51.360;6.686;2023-06-14T00:18:00;19.60;1.00
42663;DHT22;44330;51.360;6.686;2023-06-14T00:20:29;19.50;1.00
42663;DHT22;44330;51.360;6.686;2023-06-14T00:22:56;19.40;1.00
42663;DHT22;44330;51.360;6.686;2023-06-14T00:25:23;19.40;1.00
42663;DHT22;44330;51.360;6.686;2023-06-14T00:27:49;19.40;1.00
42663;DHT22;44330;51.360;6.686;2023-06-14T00:30:14;19.30;1.00
42663;DHT22;44330;51.360;6.686;2023-06-14T00:32:40;19.30;1.00
42663;DHT22;44330;51.360;6.686;2023-06-14T00:35:08;19.20;1.00
42663;DHT22;44330;51.360;6.686;2023-06-14T00:37:33;19.20;1.00
42663;DHT22;44330;51.360;6.686;2023-06-14T00:39:59;19.00;1.00
42663;DHT22;44330;51.360;6.686;2023-06-14T00:42:26;19.10;1.00
42663;DHT22;44330;51.360;6.686;2023-06-14T00:44:52;19.00;1.00
42663;DHT22;44330;51.360;6.686;2023-06-14T00:47:17;19.00;1.00
42663;DHT22;44330;51.360;6.686;2023-06-14T00:49:45;18.90;1.00
42663;DHT22;44330;51.360;6.686;2023-06-14T00:52:11;18.80;1.00
42663;DHT22;44330;51.360;6.686;2023-06-14T00:54:39;18.70;1.00
42663;DHT22;44330;51.360;6.686;2023-06-14T00:57:05;18.60;1.00
42663;DHT22;44330;51.360;6.686;2023-06-14T00:59:31;18.50;1.00
42663;DHT22;44330;51.360;6.686;2023-06-14T01:01:57;18.50;1.00
42663;DHT22;44330;51.360;6.686;2023-06-14T01:04:22;18.40;1.00
42663;DHT22;44330;51.360;6.686;2023-06-14T01:07:02;18.30;1.00
42663;DHT22;44330;51.360;6.686;2023-06-14T01:12:31;18.40;1.00
42663;DHT22;44330;51.360;6.686;2023-06-14T01:15:01;18.40;1.00
42663;DHT22;44330;51.360;6.686;2023-06-14T01:17:29;18.50;1.00
42663;DHT22;44330;51.360;6.686;2023-06-14T01:20:06;18.60;1.00
42663;DHT22;44330;51.360;6.686;2023-06-14T01:22:35;18.60;1.00
42663;DHT22;44330;51.360;6.686;2023-06-14T01:25:01;18.80;1.00
42663;DHT22;44330;51.360;6.686;2023-06-14T01:27:27;18.90;1.00
42663;DHT22;44330;51.360;6.686;2023-06-14T01:29:55;19.10;1.00
42663;DHT22;44330;51.360;6.686;2023-06-14T01:32:25;19.00;1.00
42663;DHT22;44330;51.360;6.686;2023-06-14T01:34:52;19.10;1.00
42663;DHT22;44330;51.360;6.686;2023-06-14T01:37:19;19.10;1.00
42663;DHT22;44330;51.360;6.686;2023-06-14T01:39:44;19.00;1.00
42663;DHT22;44330;51.360;6.686;2023-06-14T01:42:12;18.90;1.00
42663;DHT22;44330;51.360;6.686;2023-06-14T01:44:38;18.80;1.00
42663;DHT22;44330;51.360;6.686;2023-06-14T01:47:05;18.80;1.00
42663;DHT22;44330;51.360;6.686;2023-06-14T01:49:33;18.70;1.00
42663;DHT22;44330;51.360;6.686;2023-06-14T01:52:00;18.70;1.00
42663;DHT22;44330;51.360;6.686;2023-06-14T01:54:25;18.70;1.00
42663;DHT22;44330;51.360;6.686;2023-06-14T01:56:51;18.70;1.00
42663;DHT22;44330;51.360;6.686;2023-06-14T01:59:16;18.70;1.00
42663;DHT22;44330;51.360;6.686;2023-06-14T02:01:42;18.60;1.00
42663;DHT22;44330;51.360;6.686;2023-06-14T02:04:08;18.80;1.00
42663;DHT22;44330;51.360;6.686;2023-06-14T02:06:33;18.60;1.00
42663;DHT22;44330;51.360;6.686;2023-06-14T02:09:01;18.70;1.00
42663;DHT22;44330;51.360;6.686;2023-06-14T02:11:26;18.60;1.00
42663;DHT22;44330;51.360;6.686;2023-06-14T02:13:52;18.60;1.00
42663;DHT22;44330;51.360;6.686;2023-06-14T02:16:18;18.60;1.00
42663;DHT22;44330;51.360;6.686;2023-06-14T02:18:43;18.50;1.00
42663;DHT22;44330;51.360;6.686;2023-06-14T02:21:09;18.50;1.00
42663;DHT22;44330;51.360;6.686;2023-06-14T02:23:34;18.40;1.00
42663;DHT22;44330;51.360;6.686;2023-06-14T02:26:00;18.40;1.00
42663;DHT22;44330;51.360;6.686;2023-06-14T02:28:26;18.20;1.00
42663;DHT22;44330;51.360;6.686;2023-06-14T02:30:51;18.10;1.00
42663;DHT22;44330;51.360;6.686;2023-06-14T02:33:17;18.10;1.00
42663;DHT22;44330;51.360;6.686;2023-06-14T02:35:43;18.10;1.00
42663;DHT22;44330;51.360;6.686;2023-06-14T02:38:08;18.10;1.00
42663;DHT22;44330;51.360;6.686;2023-06-14T02:40:34;18.20;1.00
42663;DHT22;44330;51.360;6.686;2023-06-14T02:42:59;18.20;1.00
42663;DHT22;44330;51.360;6.686;2023-06-14T02:45:25;18.30;1.00
42663;DHT22;44330;51.360;6.686;2023-06-14T02:47:51;18.30;1.00
42663;DHT22;44330;51.360;6.686;2023-06-14T02:50:17;18.20;1.00
42663;DHT22;44330;51.360;6.686;2023-06-14T02:52:43;18.20;1.00
42663;DHT22;44330;51.360;6.686;2023-06-14T02:55:10;18.20;1.00
42663;DHT22;44330;51.360;6.686;2023-06-14T02:57:35;18.20;1.00
42663;DHT22;44330;51.360;6.686;2023-06-14T03:00:01;18.20;1.00
42663;DHT22;44330;51.360;6.686;2023-06-14T03:02:26;18.20;1.00
42663;DHT22;44330;51.360;6.686;2023-06-14T03:04:52;18.10;1.00
42663;DHT22;44330;51.360;6.686;2023-06-14T03:07:18;18.10;1.00
42663;DHT22;44330;51.360;6.686;2023-06-14T03:09:45;18.20;1.00
42663;DHT22;44330;51.360;6.686;2023-06-14T03:12:11;18.10;1.00
42663;DHT22;44330;51.360;6.686;2023-06-14T03:14:37;18.10;1.00
42663;DHT22;44330;51.360;6.686;2023-06-14T03:17:05;18.00;1.00
42663;DHT22;44330;51.360;6.686;2023-06-14T03:19:33;18.00;1.00
42663;DHT22;44330;51.360;6.686;2023-06-14T03:21:59;18.00;1.00
42663;DHT22;44330;51.360;6.686;2023-06-14T03:24:25;18.00;1.00
42663;DHT22;44330;51.360;6.686;2023-06-14T03:26:53;18.00;1.00
42663;DHT22;44330;51.360;6.686;2023-06-14T03:29:18;18.00;1.00
42663;DHT22;44330;51.360;6.686;2023-06-14T03:32:14;18.00;1.00
42663;DHT22;44330;51.360;6.686;2023-06-14T03:34:39;18.00;1.00
42663;DHT22;44330;51.360;6.686;2023-06-14T03:37:05;17.90;1.00
42663;DHT22;44330;51.360;6.686;2023-06-14T03:39:30;17.90;1.00
42663;DHT22;44330;51.360;6.686;2023-06-14T03:41:56;17.90;1.00
42663;DHT22;44330;51.360;6.686;2023-06-14T03:44:22;17.80;1.00
42663;DHT22;44330;51.360;6.686;2023-06-14T03:46:47;17.80;1.00
42663;DHT22;44330;51.360;6.686;2023-06-14T03:49:13;17.60;1.00
42663;DHT22;44330;51.360;6.686;2023-06-14T03:51:39;17.50;1.00
42663;DHT22;44330;51.360;6.686;2023-06-14T03:54:05;17.30;1.20
42663;DHT22;44330;51.360;6.686;2023-06-14T03:56:31;17.20;2.40
42663;DHT22;44330;51.360;6.686;2023-06-14T03:58:57;17.10;3.60
42663;DHT22;44330;51.360;6.686;2023-06-14T04:01:22;17.10;4.70
42663;DHT22;44330;51.360;6.686;2023-06-14T04:03:52;17.20;5.80
42663;DHT22;44330;51.360;6.686;2023-06-14T04:06:18;17.10;7.30
42663;DHT22;44330;51.360;6.686;2023-06-14T04:08:44;17.00;8.10
42663;DHT22;44330;51.360;6.686;2023-06-14T04:11:11;17.10;8.30
42663;DHT22;44330;51.360;6.686;2023-06-14T04:13:36;17.00;8.50
42663;DHT22;44330;51.360;6.686;2023-06-14T04:16:03;17.00;10.50
42663;DHT22;44330;51.360;6.686;2023-06-14T04:18:28;17.00;10.10
42663;DHT22;44330;51.360;6.686;2023-06-14T04:20:54;17.00;9.90
42663;DHT22;44330;51.360;6.686;2023-06-14T04:23:22;17.00;9.40
42663;DHT22;44330;51.360;6.686;2023-06-14T04:25:47;17.10;8.10
42663;DHT22;44330;51.360;6.686;2023-06-14T04:28:14;17.20;16.00
42663;DHT22;44330;51.360;6.686;2023-06-14T04:30:44;17.30;7.30
42663;DHT22;44330;51.360;6.686;2023-06-14T04:33:10;17.30;8.10
42663;DHT22;44330;51.360;6.686;2023-06-14T04:35:36;17.30;6.60
42663;DHT22;44330;51.360;6.686;2023-06-14T04:38:03;17.50;5.60
42663;DHT22;44330;51.360;6.686;2023-06-14T04:40:38;17.60;5.20
42663;DHT22;44330;51.360;6.686;2023-06-14T04:43:11;17.60;5.10
42663;DHT22;44330;51.360;6.686;2023-06-14T04:45:42;17.80;5.00
42663;DHT22;44330;51.360;6.686;2023-06-14T04:48:10;17.80;4.10
42663;DHT22;44330;51.360;6.686;2023-06-14T04:50:35;17.90;4.00
42663;DHT22;44330;51.360;6.686;2023-06-14T04:53:01;17.70;4.20
42663;DHT22;44330;51.360;6.686;2023-06-14T04:55:28;17.80;3.60
42663;DHT22;44330;51.360;6.686;2023-06-14T04:57:53;17.90;4.10
42663;DHT22;44330;51.360;6.686;2023-06-14T05:00:20;17.90;4.00
42663;DHT22;44330;51.360;6.686;2023-06-14T05:02:46;17.90;4.40
42663;DHT22;44330;51.360;6.686;2023-06-14T05:05:12;17.90;4.40
42663;DHT22;44330;51.360;6.686;2023-06-14T05:07:38;17.90;4.10
42663;DHT22;44330;51.360;6.686;2023-06-14T05:10:04;18.00;4.20
42663;DHT22;44330;51.360;6.686;2023-06-14T05:12:30;18.10;4.10
42663;DHT22;44330;51.360;6.686;2023-06-14T05:14:56;18.20;3.90
42663;DHT22;44330;51.360;6.686;2023-06-14T05:17:23;18.20;4.10
42663;DHT22;44330;51.360;6.686;2023-06-14T05:19:49;18.40;3.80
42663;DHT22;44330;51.360;6.686;2023-06-14T05:22:15;18.60;2.40
42663;DHT22;44330;51.360;6.686;2023-06-14T05:24:40;18.70;2.70
42663;DHT22;44330;51.360;6.686;2023-06-14T05:27:07;18.80;3.00
42663;DHT22;44330;51.360;6.686;2023-06-14T05:29:32;18.80;2.70
42663;DHT22;44330;51.360;6.686;2023-06-14T05:31:58;18.90;2.50
42663;DHT22;44330;51.360;6.686;2023-06-14T05:34:24;19.00;2.40
42663;DHT22;44330;51.360;6.686;2023-06-14T05:36:49;19.10;2.40
42663;DHT22;44330;51.360;6.686;2023-06-14T05:39:15;19.20;2.40
42663;DHT22;44330;51.360;6.686;2023-06-14T05:41:41;19.30;1.60
42663;DHT22;44330;51.360;6.686;2023-06-14T05:44:06;19.30;1.60
42663;DHT22;44330;51.360;6.686;2023-06-14T05:46:34;19.40;2.30
42663;DHT22;44330;51.360;6.686;2023-06-14T05:48:59;19.40;1.50
42663;DHT22;44330;51.360;6.686;2023-06-14T05:51:25;19.60;1.50
42663;DHT22;44330;51.360;6.686;2023-06-14T05:53:52;19.60;1.30
42663;DHT22;44330;51.360;6.686;2023-06-14T05:56:18;19.70;1.00
42663;DHT22;44330;51.360;6.686;2023-06-14T05:58:45;19.80;1.00
42663;DHT22;44330;51.360;6.686;2023-06-14T06:01:11;19.90;1.10
42663;DHT22;44330;51.360;6.686;2023-06-14T06:03:36;20.00;1.00
42663;DHT22;44330;51.360;6.686;2023-06-14T06:06:02;20.10;1.00
42663;DHT22;44330;51.360;6.686;2023-06-14T06:08:28;20.20;1.00
42663;DHT22;44330;51.360;6.686;2023-06-14T06:10:54;20.30;1.00
42663;DHT22;44330;51.360;6.686;2023-06-14T06:13:20;20.50;1.00
42663;DHT22;44330;51.360;6.686;2023-06-14T06:15:45;20.60;1.00
42663;DHT22;44330;51.360;6.686;2023-06-14T06:18:11;20.60;1.00
42663;DHT22;44330;51.360;6.686;2023-06-14T06:20:37;20.70;1.00
42663;DHT22;44330;51.360;6.686;2023-06-14T06:23:02;20.90;1.00
42663;DHT22;44330;51.360;6.686;2023-06-14T06:25:28;21.10;1.00
42663;DHT22;44330;51.360;6.686;2023-06-14T06:27:54;21.30;1.00
42663;DHT22;44330;51.360;6.686;2023-06-14T06:30:22;21.30;1.00
42663;DHT22;44330;51.360;6.686;2023-06-14T06:32:47;21.40;1.00
42663;DHT22;44330;51.360;6.686;2023-06-14T06:35:13;21.50;1.00
42663;DHT22;44330;51.360;6.686;2023-06-14T06:37:40;21.70;1.00
42663;DHT22;44330;51.360;6.686;2023-06-14T06:40:06;21.80;1.00
42663;DHT22;44330;51.360;6.686;2023-06-14T06:42:32;21.90;1.00
42663;DHT22;44330;51.360;6.686;2023-06-14T06:44:58;22.10;1.00
42663;DHT22;44330;51.360;6.686;2023-06-14T06:47:23;22.20;1.00
42663;DHT22;44330;51.360;6.686;2023-06-14T06:49:50;22.30;1.00
42663;DHT22;44330;51.360;6.686;2023-06-14T06:52:16;22.20;1.00
42663;DHT22;44330;51.360;6.686;2023-06-14T06:54:41;22.40;1.00
42663;DHT22;44330;51.360;6.686;2023-06-14T06:57:07;22.30;1.00
42663;DHT22;44330;51.360;6.686;2023-06-14T06:59:33;22.30;1.00
42663;DHT22;44330;51.360;6.686;2023-06-14T07:01:59;22.30;1.00
42663;DHT22;44330;51.360;6.686;2023-06-14T07:04:24;22.50;1.00
42663;DHT22;44330;51.360;6.686;2023-06-14T07:06:50;22.60;1.00
42663;DHT22;44330;51.360;6.686;2023-06-14T07:09:16;22.60;1.00
42663;DHT22;44330;51.360;6.686;2023-06-14T07:11:43;22.80;1.00
42663;DHT22;44330;51.360;6.686;2023-06-14T07:14:09;22.80;1.00
42663;DHT22;44330;51.360;6.686;2023-06-14T07:16:37;23.00;1.00
42663;DHT22;44330;51.360;6.686;2023-06-14T07:19:03;23.10;1.00
42663;DHT22;44330;51.360;6.686;2023-06-14T07:21:31;23.20;1.00
42663;DHT22;44330;51.360;6.686;2023-06-14T07:23:57;23.30;1.00
42663;DHT22;44330;51.360;6.686;2023-06-14T07:26:23;23.30;1.00
42663;DHT22;44330;51.360;6.686;2023-06-14T07:28:49;23.30;1.00
42663;DHT22;44330;51.360;6.686;2023-06-14T07:34:23;23.50;1.00
42663;DHT22;44330;51.360;6.686;2023-06-14T07:36:49;23.70;1.00
42663;DHT22;44330;51.360;6.686;2023-06-14T07:39:14;23.60;1.00
42663;DHT22;44330;51.360;6.686;2023-06-14T07:41:40;23.50;1.00
42663;DHT22;44330;51.360;6.686;2023-06-14T07:44:06;23.60;1.00
42663;DHT22;44330;51.360;6.686;2023-06-14T07:46:31;23.90;1.00
42663;DHT22;44330;51.360;6.686;2023-06-14T07:48:59;24.00;1.00
42663;DHT22;44330;51.360;6.686;2023-06-14T07:51:32;24.20;1.00
42663;DHT22;44330;51.360;6.686;2023-06-14T07:56:29;24.40;1.00
42663;DHT22;44330;51.360;6.686;2023-06-14T07:58:57;24.50;1.00
42663;DHT22;44330;51.360;6.686;2023-06-14T08:01:29;24.60;1.00
42663;DHT22;44330;51.360;6.686;2023-06-14T08:04:17;24.70;1.00
42663;DHT22;44330;51.360;6.686;2023-06-14T08:06:53;24.70;1.00
42663;DHT22;44330;51.360;6.686;2023-06-14T08:09:57;25.00;1.00
42663;DHT22;44330;51.360;6.686;2023-06-14T08:21:15;25.00;1.00
42663;DHT22;44330;51.360;6.686;2023-06-14T08:23:41;25.30;1.00
42663;DHT22;44330;51.360;6.686;2023-06-14T08:26:13;25.40;1.00
42663;DHT22;44330;51.360;6.686;2023-06-14T08:28:39;25.20;1.00
42663;DHT22;44330;51.360;6.686;2023-06-14T08:31:04;25.50;1.00
42663;DHT22;44330;51.360;6.686;2023-06-14T08:33:32;25.40;1.00
42663;DHT22;44330;51.360;6.686;2023-06-14T08:39:03;25.10;1.00
42663;DHT22;44330;51.360;6.686;2023-06-14T08:41:29;25.00;1.00
42663;DHT22;44330;51.360;6.686;2023-06-14T08:43:56;24.70;1.00
42663;DHT22;44330;51.360;6.686;2023-06-14T08:46:25;24.00;1.00
42663;DHT22;44330;51.360;6.686;2023-06-14T08:48:53;23.80;1.00
42663;DHT22;44330;51.360;6.686;2023-06-14T08:51:22;23.80;1.00
42663;DHT22;44330;51.360;6.686;2023-06-14T08:53:55;23.80;1.00
42663;DHT22;44330;51.360;6.686;2023-06-14T08:56:29;23.70;1.00
42663;DHT22;44330;51.360;6.686;2023-06-14T08:59:06;23.90;1.00
42663;DHT22;44330;51.360;6.686;2023-06-14T09:01:35;24.50;1.00
42663;DHT22;44330;51.360;6.686;2023-06-14T09:04:02;24.50;1.00
42663;DHT22;44330;51.360;6.686;2023-06-14T09:06:31;24.50;1.00
42663;DHT22;44330;51.360;6.686;2023-06-14T09:08:58;24.70;1.00
42663;DHT22;44330;51.360;6.686;2023-06-14T09:11:24;24.70;1.00
42663;DHT22;44330;51.360;6.686;2023-06-14T09:13:52;24.90;1.00
42663;DHT22;44330;51.360;6.686;2023-06-14T09:16:21;25.00;1.00
42663;DHT22;44330;51.360;6.686;2023-06-14T09:18:48;24.90;1.00
42663;DHT22;44330;51.360;6.686;2023-06-14T09:21:15;24.90;1.00
42663;DHT22;44330;51.360;6.686;2023-06-14T09:23:42;24.70;1.00
42663;DHT22;44330;51.360;6.686;2023-06-14T09:26:13;24.90;1.00
42663;DHT22;44330;51.360;6.686;2023-06-14T09:28:46;24.90;1.00
42663;DHT22;44330;51.360;6.686;2023-06-14T09:31:14;24.40;1.00
42663;DHT22;44330;51.360;6.686;2023-06-14T09:34:16;24.30;1.00
42663;DHT22;44330;51.360;6.686;2023-06-14T09:36:44;24.50;1.00
42663;DHT22;44330;51.360;6.686;2023-06-14T09:39:09;24.80;1.00
42663;DHT22;44330;51.360;6.686;2023-06-14T09:41:39;25.10;1.00
42663;DHT22;44330;51.360;6.686;2023-06-14T09:44:11;25.50;1.00
42663;DHT22;44330;51.360;6.686;2023-06-14T09:46:40;25.50;1.00
42663;DHT22;44330;51.360;6.686;2023-06-14T09:49:07;25.70;1.00
42663;DHT22;44330;51.360;6.686;2023-06-14T09:51:42;25.90;1.00
42663;DHT22;44330;51.360;6.686;2023-06-14T09:54:15;26.10;1.00
42663;DHT22;44330;51.360;6.686;2023-06-14T09:56:42;26.10;1.00
42663;DHT22;44330;51.360;6.686;2023-06-14T09:59:10;25.90;1.00
42663;DHT22;44330;51.360;6.686;2023-06-14T10:01:44;25.80;1.00
42663;DHT22;44330;51.360;6.686;2023-06-14T10:04:11;25.50;1.00
42663;DHT22;44330;51.360;6.686;2023-06-14T10:06:40;24.90;1.00
42663;DHT22;44330;51.360;6.686;2023-06-14T10:09:19;25.00;1.00
42663;DHT22;44330;51.360;6.686;2023-06-14T10:11:55;25.30;1.00
42663;DHT22;44330;51.360;6.686;2023-06-14T10:14:21;25.40;1.00
42663;DHT22;44330;51.360;6.686;2023-06-14T10:17:00;25.20;1.00
42663;DHT22;44330;51.360;6.686;2023-06-14T10:22:11;24.60;1.00
42663;DHT22;44330;51.360;6.686;2023-06-14T10:24:42;24.60;1.00
42663;DHT22;44330;51.360;6.686;2023-06-14T10:27:08;25.00;1.00
42663;DHT22;44330;51.360;6.686;2023-06-14T10:32:27;25.10;1.00
42663;DHT22;44330;51.360;6.686;2023-06-14T10:34:57;24.50;1.00
42663;DHT22;44330;51.360;6.686;2023-06-14T10:37:23;25.10;1.00
42663;DHT22;44330;51.360;6.686;2023-06-14T10:39:50;25.60;1.00
42663;DHT22;44330;51.360;6.686;2023-06-14T10:42:16;26.10;1.00
42663;DHT22;44330;51.360;6.686;2023-06-14T10:44:51;25.90;1.00
42663;DHT22;44330;51.360;6.686;2023-06-14T10:47:23;25.90;1.00
42663;DHT22;44330;51.360;6.686;2023-06-14T10:49:54;26.30;1.00
42663;DHT22;44330;51.360;6.686;2023-06-14T10:52:27;26.60;1.00
42663;DHT22;44330;51.360;6.686;2023-06-14T10:55:11;27.10;1.00
42663;DHT22;44330;51.360;6.686;2023-06-14T10:57:53;27.30;1.00
42663;DHT22;44330;51.360;6.686;2023-06-14T11:00:24;26.70;1.00
42663;DHT22;44330;51.360;6.686;2023-06-14T11:06:10;26.60;1.00
42663;DHT22;44330;51.360;6.686;2023-06-14T11:11:42;26.70;1.00
42663;DHT22;44330;51.360;6.686;2023-06-14T11:14:08;26.60;1.00
42663;DHT22;44330;51.360;6.686;2023-06-14T11:16:34;26.70;1.00
42663;DHT22;44330;51.360;6.686;2023-06-14T11:19:02;26.70;1.00
42663;DHT22;44330;51.360;6.686;2023-06-14T11:21:58;26.10;1.00
42663;DHT22;44330;51.360;6.686;2023-06-14T11:24:24;25.20;1.00
42663;DHT22;44330;51.360;6.686;2023-06-14T11:26:50;25.60;1.00
42663;DHT22;44330;51.360;6.686;2023-06-14T11:29:16;26.30;1.00
42663;DHT22;44330;51.360;6.686;2023-06-14T11:31:45;26.70;1.00
42663;DHT22;44330;51.360;6.686;2023-06-14T11:34:11;26.90;1.00
42663;DHT22;44330;51.360;6.686;2023-06-14T11:36:38;26.70;1.00
42663;DHT22;44330;51.360;6.686;2023-06-14T11:39:05;26.20;1.00
42663;DHT22;44330;51.360;6.686;2023-06-14T11:41:42;26.70;1.00
42663;DHT22;44330;51.360;6.686;2023-06-14T11:44:08;26.80;1.00
42663;DHT22;44330;51.360;6.686;2023-06-14T11:46:35;27.10;1.00
42663;DHT22;44330;51.360;6.686;2023-06-14T11:49:02;27.10;1.00
42663;DHT22;44330;51.360;6.686;2023-06-14T11:51:32;26.90;1.00
42663;DHT22;44330;51.360;6.686;2023-06-14T11:54:01;26.90;1.00
42663;DHT22;44330;51.360;6.686;2023-06-14T11:56:32;26.70;1.00
42663;DHT22;44330;51.360;6.686;2023-06-14T11:58:58;26.60;1.00
42663;DHT22;44330;51.360;6.686;2023-06-14T12:01:23;26.80;1.00
42663;DHT22;44330;51.360;6.686;2023-06-14T12:03:50;27.10;1.00
42663;DHT22;44330;51.360;6.686;2023-06-14T12:06:17;26.70;1.00
42663;DHT22;44330;51.360;6.686;2023-06-14T12:08:50;26.10;1.00
42663;DHT22;44330;51.360;6.686;2023-06-14T12:11:16;26.40;1.00
42663;DHT22;44330;51.360;6.686;2023-06-14T12:13:43;26.30;1.00
42663;DHT22;44330;51.360;6.686;2023-06-14T12:16:09;26.80;1.00
42663;DHT22;44330;51.360;6.686;2023-06-14T12:18:36;27.40;1.00
42663;DHT22;44330;51.360;6.686;2023-06-14T12:21:06;27.30;1.00
42663;DHT22;44330;51.360;6.686;2023-06-14T12:23:43;27.30;1.00
42663;DHT22;44330;51.360;6.686;2023-06-14T12:26:17;27.60;1.00
42663;DHT22;44330;51.360;6.686;2023-06-14T12:28:45;27.80;1.00
42663;DHT22;44330;51.360;6.686;2023-06-14T12:31:12;27.60;1.00
42663;DHT22;44330;51.360;6.686;2023-06-14T12:33:39;27.40;1.00
42663;DHT22;44330;51.360;6.686;2023-06-14T12:36:06;27.10;1.00
42663;DHT22;44330;51.360;6.686;2023-06-14T12:38:36;27.40;1.00
42663;DHT22;44330;51.360;6.686;2023-06-14T12:41:02;26.50;1.00
42663;DHT22;44330;51.360;6.686;2023-06-14T12:43:30;26.70;1.00
42663;DHT22;44330;51.360;6.686;2023-06-14T12:45:56;27.20;1.00
42663;DHT22;44330;51.360;6.686;2023-06-14T12:48:21;27.70;1.00
42663;DHT22;44330;51.360;6.686;2023-06-14T12:50:48;27.40;1.00
42663;DHT22;44330;51.360;6.686;2023-06-14T12:53:13;27.60;1.00
42663;DHT22;44330;51.360;6.686;2023-06-14T12:55:39;27.20;1.00
42663;DHT22;44330;51.360;6.686;2023-06-14T12:58:05;27.00;1.00
42663;DHT22;44330;51.360;6.686;2023-06-14T13:00:30;27.50;1.00
42663;DHT22;44330;51.360;6.686;2023-06-14T13:02:57;27.50;1.00
42663;DHT22;44330;51.360;6.686;2023-06-14T13:05:24;27.50;1.00
42663;DHT22;44330;51.360;6.686;2023-06-14T13:07:50;27.90;1.00
42663;DHT22;44330;51.360;6.686;2023-06-14T13:10:16;28.00;1.00
42663;DHT22;44330;51.360;6.686;2023-06-14T13:12:43;28.20;1.00
42663;DHT22;44330;51.360;6.686;2023-06-14T13:15:08;28.40;1.00
42663;DHT22;44330;51.360;6.686;2023-06-14T13:17:35;27.60;1.00
42663;DHT22;44330;51.360;6.686;2023-06-14T13:20:07;26.80;1.00
42663;DHT22;44330;51.360;6.686;2023-06-14T13:22:35;27.30;1.00
42663;DHT22;44330;51.360;6.686;2023-06-14T13:25:01;27.80;1.00
42663;DHT22;44330;51.360;6.686;2023-06-14T13:27:29;28.20;1.00
42663;DHT22;44330;51.360;6.686;2023-06-14T13:29:55;27.90;1.00
42663;DHT22;44330;51.360;6.686;2023-06-14T13:32:22;27.70;1.00
42663;DHT22;44330;51.360;6.686;2023-06-14T13:34:47;28.00;1.00
42663;DHT22;44330;51.360;6.686;2023-06-14T13:37:13;28.20;1.00
42663;DHT22;44330;51.360;6.686;2023-06-14T13:39:39;28.50;1.00
42663;DHT22;44330;51.360;6.686;2023-06-14T13:42:05;28.80;1.00
42663;DHT22;44330;51.360;6.686;2023-06-14T13:44:42;29.00;1.00
42663;DHT22;44330;51.360;6.686;2023-06-14T13:47:08;29.10;1.00
42663;DHT22;44330;51.360;6.686;2023-06-14T13:49:33;29.20;1.00
42663;DHT22;44330;51.360;6.686;2023-06-14T13:52:00;29.00;1.00
42663;DHT22;44330;51.360;6.686;2023-06-14T13:54:26;28.80;1.00
42663;DHT22;44330;51.360;6.686;2023-06-14T13:56:52;27.90;1.00
42663;DHT22;44330;51.360;6.686;2023-06-14T13:59:17;28.30;1.00
42663;DHT22;44330;51.360;6.686;2023-06-14T14:01:43;28.70;1.00
42663;DHT22;44330;51.360;6.686;2023-06-14T14:04:08;29.00;1.00
42663;DHT22;44330;51.360;6.686;2023-06-14T14:06:34;29.10;1.00
42663;DHT22;44330;51.360;6.686;2023-06-14T14:09:01;28.30;1.00
42663;DHT22;44330;51.360;6.686;2023-06-14T14:11:26;27.80;1.00
42663;DHT22;44330;51.360;6.686;2023-06-14T14:13:53;27.70;1.00
42663;DHT22;44330;51.360;6.686;2023-06-14T14:16:19;27.70;1.00
42663;DHT22;44330;51.360;6.686;2023-06-14T14:18:45;27.80;1.00
42663;DHT22;44330;51.360;6.686;2023-06-14T14:21:11;28.10;1.00
42663;DHT22;44330;51.360;6.686;2023-06-14T14:23:37;28.30;1.00
42663;DHT22;44330;51.360;6.686;2023-06-14T14:26:02;27.70;1.00
42663;DHT22;44330;51.360;6.686;2023-06-14T14:28:30;27.30;1.00
42663;DHT22;44330;51.360;6.686;2023-06-14T14:30:56;27.50;1.00
42663;DHT22;44330;51.360;6.686;2023-06-14T14:33:22;27.90;1.00
42663;DHT22;44330;51.360;6.686;2023-06-14T14:35:48;28.30;1.00
42663;DHT22;44330;51.360;6.686;2023-06-14T14:38:14;28.50;1.00
42663;DHT22;44330;51.360;6.686;2023-06-14T14:40:41;28.80;1.00
42663;DHT22;44330;51.360;6.686;2023-06-14T14:43:07;28.80;1.00
42663;DHT22;44330;51.360;6.686;2023-06-14T14:45:33;28.90;1.00
42663;DHT22;44330;51.360;6.686;2023-06-14T14:48:00;28.80;1.00
42663;DHT22;44330;51.360;6.686;2023-06-14T14:50:26;29.00;1.00
42663;DHT22;44330;51.360;6.686;2023-06-14T14:52:51;29.00;1.00
42663;DHT22;44330;51.360;6.686;2023-06-14T14:55:17;29.00;1.00
42663;DHT22;44330;51.360;6.686;2023-06-14T14:57:43;28.70;1.00
42663;DHT22;44330;51.360;6.686;2023-06-14T15:00:09;28.20;1.00
42663;DHT22;44330;51.360;6.686;2023-06-14T15:02:35;28.00;1.00
42663;DHT22;44330;51.360;6.686;2023-06-14T15:05:01;28.10;1.00
42663;DHT22;44330;51.360;6.686;2023-06-14T15:07:28;28.10;1.00
42663;DHT22;44330;51.360;6.686;2023-06-14T15:09:54;28.00;1.00
42663;DHT22;44330;51.360;6.686;2023-06-14T15:12:23;28.20;1.00
42663;DHT22;44330;51.360;6.686;2023-06-14T15:14:52;28.50;1.00
42663;DHT22;44330;51.360;6.686;2023-06-14T15:17:21;28.50;1.00
42663;DHT22;44330;51.360;6.686;2023-06-14T15:19:47;28.70;1.00
42663;DHT22;44330;51.360;6.686;2023-06-14T15:22:16;28.80;1.00
42663;DHT22;44330;51.360;6.686;2023-06-14T15:24:42;28.70;1.00
42663;DHT22;44330;51.360;6.686;2023-06-14T15:27:08;28.50;1.00
42663;DHT22;44330;51.360;6.686;2023-06-14T15:29:34;28.40;1.00
42663;DHT22;44330;51.360;6.686;2023-06-14T15:32:03;28.20;1.00
42663;DHT22;44330;51.360;6.686;2023-06-14T15:34:30;27.80;1.00
42663;DHT22;44330;51.360;6.686;2023-06-14T15:36:56;27.60;1.00
42663;DHT22;44330;51.360;6.686;2023-06-14T15:39:21;27.50;1.00
42663;DHT22;44330;51.360;6.686;2023-06-14T15:41:48;27.40;1.00
42663;DHT22;44330;51.360;6.686;2023-06-14T15:44:14;26.90;1.00
42663;DHT22;44330;51.360;6.686;2023-06-14T15:46:40;27.00;1.00
42663;DHT22;44330;51.360;6.686;2023-06-14T15:49:09;27.00;1.00
42663;DHT22;44330;51.360;6.686;2023-06-14T15:51:35;27.10;1.00
42663;DHT22;44330;51.360;6.686;2023-06-14T15:54:01;27.40;1.00
42663;DHT22;44330;51.360;6.686;2023-06-14T15:56:27;27.50;1.00
42663;DHT22;44330;51.360;6.686;2023-06-14T15:58:52;27.60;1.00
42663;DHT22;44330;51.360;6.686;2023-06-14T16:01:18;27.60;1.00
42663;DHT22;44330;51.360;6.686;2023-06-14T16:03:43;27.70;1.00
42663;DHT22;44330;51.360;6.686;2023-06-14T16:06:09;27.70;1.00
42663;DHT22;44330;51.360;6.686;2023-06-14T16:08:34;27.50;1.00
42663;DHT22;44330;51.360;6.686;2023-06-14T16:11:00;27.70;1.00
42663;DHT22;44330;51.360;6.686;2023-06-14T16:13:25;27.60;1.00
42663;DHT22;44330;51.360;6.686;2023-06-14T16:15:51;27.70;1.00
42663;DHT22;44330;51.360;6.686;2023-06-14T16:18:16;27.70;1.00